createdAt,value
2022-10-20T00:00:01.214Z,0
2022-10-20T00:01:04.285Z,0
2022-10-20T00:02:01.437Z,0
2022-10-20T00:03:01.222Z,0
2022-10-20T00:04:01.147Z,0
2022-10-20T00:05:01.183Z,0
2022-10-20T00:06:06.405Z,0
2022-10-20T00:07:01.059Z,0
2022-10-20T00:08:01.076Z,0
2022-10-20T00:09:01.187Z,0
2022-10-20T00:10:01.917Z,0
2022-10-20T00:11:10.554Z,0
2022-10-20T00:12:01.480Z,0
2022-10-20T00:13:01.260Z,0
2022-10-20T00:14:01.112Z,0
2022-10-20T00:15:01.105Z,0
2022-10-20T00:16:13.488Z,0
2022-10-20T00:17:01.124Z,0
2022-10-20T00:18:01.139Z,0
2022-10-20T00:19:01.135Z,0
2022-10-20T00:20:01.248Z,0
2022-10-20T00:21:15.750Z,0
2022-10-20T00:22:01.393Z,0
2022-10-20T00:23:01.366Z,0
2022-10-20T00:24:01.385Z,0
2022-10-20T00:25:02.735Z,0
2022-10-20T00:26:01.098Z,0
2022-10-20T00:27:01.049Z,0
2022-10-20T00:28:01.090Z,0
2022-10-20T00:29:01.095Z,0.08055555555555555
2022-10-20T00:30:01.104Z,0
2022-10-20T00:31:01.117Z,0
2022-10-20T00:32:01.226Z,0
2022-10-20T00:33:01.133Z,0
2022-10-20T00:34:01.053Z,0
2022-10-20T00:35:01.036Z,0
2022-10-20T00:36:01.145Z,0
2022-10-20T00:37:01.148Z,0
2022-10-20T00:38:01.454Z,0
2022-10-20T00:39:01.905Z,0
2022-10-20T00:40:01.106Z,0
2022-10-20T00:41:01.210Z,0
2022-10-20T00:42:01.905Z,0
2022-10-20T00:43:01.084Z,0
2022-10-20T00:44:01.088Z,0
2022-10-20T00:45:01.398Z,0
2022-10-20T00:46:01.488Z,0
2022-10-20T00:47:01.134Z,0
2022-10-20T00:48:01.136Z,0
2022-10-20T00:49:01.125Z,0
2022-10-20T00:50:01.120Z,0
2022-10-20T00:51:01.135Z,0
2022-10-20T00:52:01.246Z,0
2022-10-20T00:53:01.138Z,0
2022-10-20T00:54:01.140Z,0
2022-10-20T00:55:01.047Z,0
2022-10-20T00:56:01.259Z,0
2022-10-20T00:57:04.122Z,0
2022-10-20T00:58:01.075Z,0
2022-10-20T00:59:01.053Z,0
2022-10-20T01:00:01.485Z,0
2022-10-20T01:01:01.091Z,0
2022-10-20T01:02:01.139Z,0
2022-10-20T01:03:01.122Z,0
2022-10-20T01:04:01.102Z,0
2022-10-20T01:05:01.145Z,0
2022-10-20T01:06:01.149Z,0
2022-10-20T01:07:00.939Z,0
2022-10-20T01:08:00.635Z,0
2022-10-20T01:09:00.376Z,0
2022-10-20T01:10:00.015Z,0
2022-10-20T01:10:59.618Z,0
2022-10-20T01:12:01.708Z,0
2022-10-20T01:13:01.801Z,0
2022-10-20T01:14:01.661Z,0
2022-10-20T01:15:02.151Z,0
2022-10-20T01:16:01.397Z,0
2022-10-20T01:17:01.899Z,0
2022-10-20T01:18:01.821Z,0
2022-10-20T01:19:01.143Z,0
2022-10-20T01:20:01.856Z,0
2022-10-20T01:21:01.148Z,0
2022-10-20T01:22:01.124Z,0
2022-10-20T01:23:01.121Z,0
2022-10-20T01:24:01.323Z,0
2022-10-20T01:25:01.517Z,0
2022-10-20T01:26:01.147Z,0
2022-10-20T01:27:01.096Z,0
2022-10-20T01:28:01.063Z,0
2022-10-20T01:29:01.061Z,0
2022-10-20T01:31:01.088Z,0
2022-10-20T01:32:01.076Z,0
2022-10-20T01:33:01.364Z,0
2022-10-20T01:34:01.041Z,0
2022-10-20T01:35:01.451Z,0
2022-10-20T01:36:01.116Z,0
2022-10-20T01:37:01.132Z,0
2022-10-20T01:38:01.143Z,0
2022-10-20T01:39:01.122Z,0
2022-10-20T01:40:01.133Z,0
2022-10-20T01:41:01.162Z,0
2022-10-20T01:42:01.148Z,0
2022-10-20T01:43:01.858Z,0
2022-10-20T01:44:01.871Z,0
2022-10-20T01:45:01.484Z,0
2022-10-20T01:46:01.106Z,0
2022-10-20T01:47:01.075Z,0
2022-10-20T01:48:01.308Z,0
2022-10-20T01:49:01.477Z,0
2022-10-20T01:50:01.061Z,0
2022-10-20T01:51:01.188Z,0
2022-10-20T01:52:01.111Z,0
2022-10-20T01:53:01.116Z,0
2022-10-20T01:54:01.134Z,0
2022-10-20T01:55:01.121Z,0
2022-10-20T01:56:00.755Z,0
2022-10-20T01:57:00.426Z,0
2022-10-20T01:58:00.261Z,0
2022-10-20T01:59:00.016Z,0
2022-10-20T01:59:59.710Z,0
2022-10-20T02:01:01.357Z,0
2022-10-20T02:02:01.970Z,0
2022-10-20T02:03:01.079Z,0
2022-10-20T02:04:01.107Z,0
2022-10-20T02:05:01.092Z,0
2022-10-20T02:06:01.102Z,0
2022-10-20T02:07:01.530Z,0
2022-10-20T02:08:00.978Z,0
2022-10-20T02:09:00.655Z,0
2022-10-20T02:10:00.399Z,0
2022-10-20T02:11:00.422Z,0
2022-10-20T02:12:01.148Z,0
2022-10-20T02:13:01.157Z,0
2022-10-20T02:14:01.142Z,0
2022-10-20T02:15:01.458Z,0
2022-10-20T02:16:01.058Z,0
2022-10-20T02:17:01.069Z,0
2022-10-20T02:18:01.062Z,0
2022-10-20T02:19:01.096Z,0
2022-10-20T02:20:01.109Z,0
2022-10-20T02:21:01.475Z,0
2022-10-20T02:22:00.983Z,0
2022-10-20T02:23:01.052Z,0
2022-10-20T02:24:00.542Z,0
2022-10-20T02:25:00.173Z,0
2022-10-20T02:25:59.946Z,0
2022-10-20T02:26:59.686Z,0
2022-10-20T02:28:01.333Z,0
2022-10-20T02:29:01.329Z,0
2022-10-20T02:30:01.395Z,0
2022-10-20T02:31:01.076Z,0
2022-10-20T02:32:01.046Z,0
2022-10-20T02:33:01.065Z,0
2022-10-20T02:34:01.087Z,0
2022-10-20T02:35:05.029Z,0
2022-10-20T02:36:01.097Z,0
2022-10-20T02:37:01.108Z,0.15833333333333333
2022-10-20T02:38:01.138Z,0
2022-10-20T02:39:01.173Z,0.03888888888888889
2022-10-20T02:40:01.226Z,0.15833333333333333
2022-10-20T02:41:02.813Z,0.20833333333333331
2022-10-20T02:42:01.510Z,0.23888888888888887
2022-10-20T02:43:01.123Z,0.11944444444444444
2022-10-20T02:44:01.149Z,0.08055555555555555
2022-10-20T02:45:01.133Z,0.19999999999999998
2022-10-20T02:46:05.930Z,0
2022-10-20T02:47:01.531Z,0
2022-10-20T02:48:02.527Z,0.03888888888888889
2022-10-20T02:49:01.697Z,0.11944444444444444
2022-10-20T02:50:02.025Z,0.08055555555555555
2022-10-20T02:51:10.463Z,0
2022-10-20T02:52:01.082Z,0
2022-10-20T02:53:01.465Z,0.036111111111111115
2022-10-20T02:54:01.203Z,0
2022-10-20T02:55:01.111Z,0
2022-10-20T02:56:13.466Z,0
2022-10-20T02:57:01.122Z,0
2022-10-20T02:58:01.123Z,0
2022-10-20T02:59:01.129Z,0.03888888888888889
2022-10-20T03:00:01.131Z,0
2022-10-20T03:01:16.301Z,0
2022-10-20T03:02:01.609Z,0
2022-10-20T03:03:01.170Z,0
2022-10-20T03:04:01.057Z,0
2022-10-20T03:05:01.060Z,0
2022-10-20T03:06:01.107Z,0
2022-10-20T03:07:01.743Z,0
2022-10-20T03:08:01.053Z,0
2022-10-20T03:09:01.106Z,0
2022-10-20T03:10:01.093Z,0
2022-10-20T03:11:01.451Z,0
2022-10-20T03:12:01.119Z,0
2022-10-20T03:13:01.148Z,0
2022-10-20T03:14:00.574Z,0
2022-10-20T03:15:00.210Z,0
2022-10-20T03:15:59.796Z,0
2022-10-20T03:17:01.452Z,0
2022-10-20T03:18:02.861Z,0
2022-10-20T03:19:04.587Z,0
2022-10-20T03:20:01.857Z,0
2022-10-20T03:21:01.155Z,0
2022-10-20T03:22:01.091Z,0
2022-10-20T03:23:01.067Z,0
2022-10-20T03:24:01.389Z,0
2022-10-20T03:25:01.050Z,0
2022-10-20T03:26:01.097Z,0
2022-10-20T03:27:01.107Z,0
2022-10-20T03:28:01.101Z,0
2022-10-20T03:29:01.047Z,0
2022-10-20T03:30:01.151Z,0
2022-10-20T03:31:01.131Z,0
2022-10-20T03:32:01.515Z,0
2022-10-20T03:33:01.152Z,0
2022-10-20T03:34:00.728Z,0
2022-10-20T03:35:00.302Z,0
2022-10-20T03:35:59.856Z,0
2022-10-20T03:37:01.751Z,0
2022-10-20T03:38:01.094Z,0
2022-10-20T03:39:01.089Z,0
2022-10-20T03:40:01.074Z,0
2022-10-20T03:42:01.094Z,0
2022-10-20T03:43:01.161Z,0
2022-10-20T03:44:01.103Z,0
2022-10-20T03:45:01.107Z,0
2022-10-20T03:46:01.138Z,0
2022-10-20T03:47:01.060Z,0.23888888888888887
2022-10-20T03:48:01.146Z,0.15833333333333333
2022-10-20T03:49:01.750Z,0.11388888888888887
2022-10-20T03:50:01.590Z,0
2022-10-20T03:51:01.452Z,0
2022-10-20T03:52:01.145Z,0.019444444444444445
2022-10-20T03:53:01.048Z,0
2022-10-20T03:54:01.149Z,0.11944444444444444
2022-10-20T03:55:01.049Z,0.08055555555555555
2022-10-20T03:56:01.089Z,0.19999999999999998
2022-10-20T03:57:04.169Z,0.15833333333333333
2022-10-20T03:58:01.357Z,0
2022-10-20T03:59:01.152Z,0.19166666666666665
2022-10-20T04:00:01.504Z,0.15
2022-10-20T04:01:01.156Z,0.15833333333333333
2022-10-20T04:02:01.290Z,0
2022-10-20T04:03:01.143Z,0.15833333333333333
2022-10-20T04:04:01.079Z,0.11944444444444444
2022-10-20T04:05:07.187Z,0.05833333333333333
2022-10-20T04:06:06.348Z,0.036111111111111115
2022-10-20T04:07:01.540Z,0.15833333333333333
2022-10-20T04:08:02.208Z,0
2022-10-20T04:09:01.210Z,0
2022-10-20T04:10:02.365Z,0
2022-10-20T04:11:01.089Z,0
2022-10-20T04:12:01.134Z,0
2022-10-20T04:13:01.050Z,0
2022-10-20T04:14:01.116Z,0.11944444444444444
2022-10-20T04:15:01.104Z,0.19999999999999998
2022-10-20T04:16:01.425Z,0
2022-10-20T04:17:02.226Z,0
2022-10-20T04:18:01.120Z,0
2022-10-20T04:19:01.752Z,0
2022-10-20T04:20:01.132Z,0
2022-10-20T04:21:00.920Z,0
2022-10-20T04:22:04.011Z,0
2022-10-20T04:23:01.426Z,0
2022-10-20T04:24:03.343Z,0
2022-10-20T04:25:01.170Z,0
2022-10-20T04:26:01.189Z,0
2022-10-20T04:27:06.278Z,0
2022-10-20T04:28:01.184Z,0
2022-10-20T04:29:01.898Z,0
2022-10-20T04:30:01.489Z,0
2022-10-20T04:31:01.099Z,0
2022-10-20T04:32:09.574Z,0
2022-10-20T04:33:01.306Z,0
2022-10-20T04:34:01.131Z,0
2022-10-20T04:35:01.292Z,0
2022-10-20T04:36:01.323Z,0
2022-10-20T04:37:12.156Z,0
2022-10-20T04:38:01.159Z,0
2022-10-20T04:39:01.137Z,0
2022-10-20T04:40:01.041Z,0
2022-10-20T04:41:03.987Z,0
2022-10-20T04:42:15.339Z,0
2022-10-20T04:43:01.985Z,0
2022-10-20T04:44:02.080Z,0
2022-10-20T04:45:01.188Z,0
2022-10-20T04:46:03.853Z,0
2022-10-20T04:47:01.093Z,0
2022-10-20T04:48:01.095Z,0
2022-10-20T04:49:01.118Z,0
2022-10-20T04:50:00.939Z,0
2022-10-20T04:51:01.119Z,0
2022-10-20T04:52:01.418Z,0
2022-10-20T04:53:01.164Z,0
2022-10-20T04:54:01.207Z,0
2022-10-20T04:55:01.152Z,0
2022-10-20T04:56:01.158Z,0
2022-10-20T04:57:01.062Z,0
2022-10-20T04:58:01.100Z,0
2022-10-20T04:59:01.757Z,0
2022-10-20T05:00:01.141Z,0
2022-10-20T05:01:01.078Z,0
2022-10-20T05:02:01.124Z,0
2022-10-20T05:03:01.467Z,0.19999999999999998
2022-10-20T05:04:01.476Z,0.11111111111111112
2022-10-20T05:05:01.048Z,0
2022-10-20T05:06:01.042Z,0
2022-10-20T05:07:01.043Z,0
2022-10-20T05:08:01.059Z,0
2022-10-20T05:09:01.208Z,0.03888888888888889
2022-10-20T05:10:01.952Z,0
2022-10-20T05:11:02.573Z,0
2022-10-20T05:12:01.622Z,0
2022-10-20T05:13:01.578Z,0
2022-10-20T05:14:01.853Z,0
2022-10-20T05:15:01.161Z,0
2022-10-20T05:16:01.078Z,0
2022-10-20T05:17:02.421Z,0.03888888888888889
2022-10-20T05:18:01.877Z,0.03888888888888889
2022-10-20T05:19:01.128Z,0
2022-10-20T05:20:01.118Z,0
2022-10-20T05:21:08.798Z,0.11944444444444444
2022-10-20T05:22:01.230Z,0.19999999999999998
2022-10-20T05:23:01.147Z,0.15833333333333333
2022-10-20T05:24:01.128Z,0.23888888888888887
2022-10-20T05:25:24.586Z,0.03888888888888889
2022-10-20T05:26:01.515Z,0.08055555555555555
2022-10-20T05:27:02.081Z,0
2022-10-20T05:28:02.161Z,0.03888888888888889
2022-10-20T05:29:01.158Z,0
2022-10-20T05:30:01.479Z,0.10833333333333334
2022-10-20T05:31:01.803Z,0.075
2022-10-20T05:32:01.088Z,0
2022-10-20T05:33:00.767Z,0.23888888888888887
2022-10-20T05:34:00.375Z,0.23888888888888887
2022-10-20T05:34:59.949Z,0.2777777777777778
2022-10-20T05:35:59.671Z,0.19999999999999998
2022-10-20T05:37:02.431Z,0.23888888888888887
2022-10-20T05:38:02.133Z,0
2022-10-20T05:39:02.363Z,0.03888888888888889
2022-10-20T05:40:01.146Z,0
2022-10-20T05:41:01.178Z,0
2022-10-20T05:42:01.130Z,0
2022-10-20T05:43:01.141Z,0.12222222222222222
2022-10-20T05:44:01.150Z,0.03888888888888889
2022-10-20T05:45:01.460Z,0.15833333333333333
2022-10-20T05:46:01.070Z,0.03888888888888889
2022-10-20T05:47:01.089Z,0.19999999999999998
2022-10-20T05:48:01.593Z,0.03888888888888889
2022-10-20T05:49:01.222Z,0.15833333333333333
2022-10-20T05:50:01.002Z,0.15555555555555556
2022-10-20T05:51:00.700Z,0.08055555555555555
2022-10-20T05:52:00.614Z,0.03888888888888889
2022-10-20T05:53:00.390Z,0.14722222222222223
2022-10-20T05:53:59.991Z,0.15833333333333333
2022-10-20T05:54:59.622Z,0.08055555555555555
2022-10-20T05:56:01.265Z,0.08055555555555555
2022-10-20T05:57:01.516Z,0.17777777777777778
2022-10-20T05:58:02.660Z,0.075
2022-10-20T05:59:01.135Z,0
2022-10-20T06:00:01.153Z,0
2022-10-20T06:01:01.076Z,0
2022-10-20T06:02:01.125Z,0.31666666666666665
2022-10-20T06:03:05.623Z,0
2022-10-20T06:04:01.185Z,0.2777777777777778
2022-10-20T06:05:02.072Z,0.15833333333333333
2022-10-20T06:06:02.062Z,0.11944444444444444
2022-10-20T06:07:02.096Z,0.11944444444444444
2022-10-20T06:08:07.613Z,0.17222222222222222
2022-10-20T06:09:01.108Z,0.11944444444444444
2022-10-20T06:10:01.803Z,0.15833333333333333
2022-10-20T06:11:01.781Z,0.11944444444444444
2022-10-20T06:12:02.488Z,0.15833333333333333
2022-10-20T06:13:10.926Z,0.14722222222222223
2022-10-20T06:14:01.507Z,0.22777777777777775
2022-10-20T06:15:01.250Z,0.2777777777777778
2022-10-20T06:16:02.151Z,0.11944444444444444
2022-10-20T06:17:01.072Z,0.23888888888888887
2022-10-20T06:18:13.312Z,0
2022-10-20T06:19:01.815Z,0
2022-10-20T06:20:02.505Z,0.11944444444444444
2022-10-20T06:21:01.487Z,0
2022-10-20T06:22:04.073Z,0.08055555555555555
2022-10-20T06:23:16.739Z,0.12222222222222222
2022-10-20T06:24:02.317Z,0.1527777777777778
2022-10-20T06:25:01.924Z,0.19999999999999998
2022-10-20T06:26:02.134Z,0.11944444444444444
2022-10-20T06:27:01.121Z,0.11944444444444444
2022-10-20T06:28:01.118Z,0.31666666666666665
2022-10-20T06:29:04.696Z,0.19999999999999998
2022-10-20T06:30:01.541Z,0.15833333333333333
2022-10-20T06:31:02.279Z,0.03888888888888889
2022-10-20T06:32:01.194Z,0.11944444444444444
2022-10-20T06:33:01.158Z,0.23888888888888887
2022-10-20T06:34:00.856Z,0.11944444444444444
2022-10-20T06:35:00.435Z,0.11666666666666665
2022-10-20T06:36:00.064Z,0
2022-10-20T06:36:59.732Z,0.15833333333333333
2022-10-20T06:38:01.853Z,0.19999999999999998
2022-10-20T06:39:02.029Z,0.19999999999999998
2022-10-20T06:40:01.856Z,0.23888888888888887
2022-10-20T06:41:01.470Z,0.08055555555555555
2022-10-20T06:42:02.125Z,0
2022-10-20T06:43:02.134Z,0
2022-10-20T06:44:01.832Z,0
2022-10-20T06:45:01.177Z,0.14166666666666666
2022-10-20T06:46:01.130Z,0.03888888888888889
2022-10-20T06:47:01.147Z,0.08055555555555555
2022-10-20T06:48:01.141Z,0.2777777777777778
2022-10-20T06:49:01.172Z,0
2022-10-20T06:50:01.078Z,0.15833333333333333
2022-10-20T06:51:01.078Z,0.11944444444444444
2022-10-20T06:52:01.113Z,0
2022-10-20T06:53:01.079Z,0
2022-10-20T06:54:01.475Z,0
2022-10-20T06:55:01.375Z,0.2777777777777778
2022-10-20T06:56:02.770Z,0.11111111111111112
2022-10-20T06:57:02.150Z,0.15833333333333333
2022-10-20T06:58:01.105Z,0.15833333333333333
2022-10-20T06:59:01.137Z,0.09999999999999999
2022-10-20T07:00:00.651Z,0.019444444444444445
2022-10-20T07:01:02.602Z,0.08055555555555555
2022-10-20T07:02:01.495Z,0
2022-10-20T07:03:01.403Z,0
2022-10-20T07:04:02.267Z,0.036111111111111115
2022-10-20T07:05:01.169Z,0.03888888888888889
2022-10-20T07:06:01.790Z,0.03888888888888889
2022-10-20T07:07:01.080Z,0.19999999999999998
2022-10-20T07:08:01.176Z,0.11944444444444444
2022-10-20T07:09:01.179Z,0.15833333333333333
2022-10-20T07:10:02.438Z,0.019444444444444445
2022-10-20T07:11:02.118Z,0.19999999999999998
2022-10-20T07:12:01.490Z,0.075
2022-10-20T07:13:01.221Z,0.2777777777777778
2022-10-20T07:14:00.593Z,0.23888888888888887
2022-10-20T07:15:00.180Z,0.23888888888888887
2022-10-20T07:15:59.838Z,0.08055555555555555
2022-10-20T07:17:01.542Z,0.19999999999999998
2022-10-20T07:18:01.135Z,0.35833333333333334
2022-10-20T07:19:01.158Z,0.23888888888888887
2022-10-20T07:20:01.592Z,0.2638888888888889
2022-10-20T07:21:02.108Z,0.2777777777777778
2022-10-20T07:22:01.989Z,0.23888888888888887
2022-10-20T07:23:01.185Z,0.47777777777777775
2022-10-20T07:24:01.398Z,0.15833333333333333
2022-10-20T07:25:01.089Z,0.2777777777777778
2022-10-20T07:26:01.079Z,0.08055555555555555
2022-10-20T07:27:01.113Z,0.2777777777777778
2022-10-20T07:28:01.087Z,0.23888888888888887
2022-10-20T07:29:01.340Z,0.2777777777777778
2022-10-20T07:30:01.119Z,0.21944444444444444
2022-10-20T07:31:01.876Z,0.08055555555555555
2022-10-20T07:32:02.086Z,0.19999999999999998
2022-10-20T07:33:02.551Z,0.2777777777777778
2022-10-20T07:34:13.582Z,0.29444444444444445
2022-10-20T07:35:01.324Z,0.11944444444444444
2022-10-20T07:36:01.675Z,0.19999999999999998
2022-10-20T07:37:01.856Z,0
2022-10-20T07:38:01.048Z,0.15833333333333333
2022-10-20T07:39:01.194Z,0.12222222222222222
2022-10-20T07:40:01.061Z,0.31388888888888883
2022-10-20T07:41:01.775Z,0.35833333333333334
2022-10-20T07:42:01.778Z,0.19999999999999998
2022-10-20T07:43:01.120Z,0.23888888888888887
2022-10-20T07:44:01.149Z,0.1611111111111111
2022-10-20T07:45:01.815Z,0.19999999999999998
2022-10-20T07:46:01.520Z,0.2777777777777778
2022-10-20T07:47:00.716Z,0.15833333333333333
2022-10-20T07:48:00.409Z,0.47777777777777775
2022-10-20T07:49:23.907Z,0.34444444444444444
2022-10-20T07:50:01.282Z,0.2777777777777778
2022-10-20T07:51:01.591Z,0.07777777777777778
2022-10-20T07:52:01.530Z,0.11944444444444444
2022-10-20T07:53:01.203Z,0.15833333333333333
2022-10-20T07:54:03.122Z,0.11944444444444444
2022-10-20T07:55:17.381Z,0.23888888888888887
2022-10-20T07:56:01.059Z,0.2777777777777778
2022-10-20T07:57:01.778Z,0.23888888888888887
2022-10-20T07:58:02.509Z,0.675
2022-10-20T07:59:06.573Z,0.12222222222222222
2022-10-20T08:00:01.287Z,0.35833333333333334
2022-10-20T08:01:04.097Z,0.6611111111111111
2022-10-20T08:02:01.836Z,0.4361111111111111
2022-10-20T08:03:01.151Z,0.15833333333333333
2022-10-20T08:04:09.521Z,0.3333333333333333
2022-10-20T08:05:01.133Z,0.35
2022-10-20T08:06:01.141Z,0.5166666666666667
2022-10-20T08:07:01.285Z,0.23888888888888887
2022-10-20T08:08:01.532Z,0.036111111111111115
2022-10-20T08:09:12.701Z,0.5416666666666666
2022-10-20T08:10:01.088Z,0.19999999999999998
2022-10-20T08:11:01.356Z,0.23888888888888887
2022-10-20T08:12:01.089Z,0.875
2022-10-20T08:13:01.090Z,0.11944444444444444
2022-10-20T08:14:14.425Z,0.9944444444444445
2022-10-20T08:15:01.132Z,0.075
2022-10-20T08:16:01.511Z,0.036111111111111115
2022-10-20T08:17:01.372Z,0.6361111111111111
2022-10-20T08:18:01.102Z,0.31666666666666665
2022-10-20T08:19:01.698Z,0.5972222222222222
2022-10-20T08:20:02.224Z,0.4361111111111111
2022-10-20T08:21:01.329Z,0.03888888888888889
2022-10-20T08:22:02.573Z,0.8333333333333333
2022-10-20T08:23:01.312Z,0.4361111111111111
2022-10-20T08:24:01.398Z,0.31666666666666665
2022-10-20T08:25:01.534Z,0.513888888888889
2022-10-20T08:26:01.154Z,0.35833333333333334
2022-10-20T08:27:01.053Z,0
2022-10-20T08:28:01.071Z,0.31666666666666665
2022-10-20T08:29:01.088Z,0.675
2022-10-20T08:30:22.359Z,0.14166666666666666
2022-10-20T08:31:01.511Z,0.2833333333333333
2022-10-20T08:32:01.263Z,1.0722222222222222
2022-10-20T08:33:01.107Z,0.5166666666666667
2022-10-20T08:34:01.435Z,0.47777777777777775
2022-10-20T08:35:01.121Z,0
2022-10-20T08:36:01.128Z,0.23888888888888887
2022-10-20T08:37:01.124Z,0.7138888888888888
2022-10-20T08:38:00.560Z,0.7138888888888888
2022-10-20T08:39:03.564Z,0.47777777777777775
2022-10-20T08:40:01.755Z,0.7555555555555555
2022-10-20T08:41:01.162Z,0.11944444444444444
2022-10-20T08:42:09.561Z,0
2022-10-20T08:43:01.057Z,0.9138888888888889
2022-10-20T08:44:01.147Z,0.8333333333333333
2022-10-20T08:45:01.075Z,0.8305555555555556
2022-10-20T08:46:01.269Z,0.875
2022-10-20T08:47:01.081Z,0.9138888888888889
2022-10-20T08:48:01.158Z,1.6277777777777778
2022-10-20T08:49:01.102Z,1.2305555555555554
2022-10-20T08:50:01.483Z,0.4361111111111111
2022-10-20T08:51:01.543Z,0.911111111111111
2022-10-20T08:52:01.188Z,1.0333333333333334
2022-10-20T08:53:01.078Z,0.875
2022-10-20T08:54:00.830Z,0.7138888888888888
2022-10-20T08:55:00.392Z,0.6694444444444445
2022-10-20T08:56:00.006Z,1.0722222222222222
2022-10-20T08:56:59.601Z,0.5972222222222222
2022-10-20T08:58:01.406Z,0.6361111111111111
2022-10-20T08:59:01.200Z,1.3111111111111111
2022-10-20T09:00:03.912Z,0.575
2022-10-20T09:01:04.144Z,0.9388888888888889
2022-10-20T09:02:01.214Z,0.6361111111111111
2022-10-20T09:03:01.230Z,0.31666666666666665
2022-10-20T09:04:02.316Z,0.8333333333333333
2022-10-20T09:05:00.843Z,0.6583333333333333
2022-10-20T09:06:00.481Z,0.875
2022-10-20T09:07:00.021Z,0.8333333333333333
2022-10-20T09:07:59.567Z,1.1916666666666667
2022-10-20T09:09:01.246Z,0.7555555555555555
2022-10-20T09:10:01.300Z,0.7916666666666666
2022-10-20T09:11:01.129Z,0.6361111111111111
2022-10-20T09:12:01.269Z,1.0333333333333334
2022-10-20T09:13:01.655Z,0.7138888888888888
2022-10-20T09:14:01.301Z,0.31666666666666665
2022-10-20T09:15:02.553Z,0.7944444444444444
2022-10-20T09:16:01.078Z,1.152777777777778
2022-10-20T09:17:01.233Z,1.3111111111111111
2022-10-20T09:18:01.240Z,1.0333333333333334
2022-10-20T09:19:01.088Z,1.1111111111111112
2022-10-20T09:20:01.101Z,0.8027777777777778
2022-10-20T09:21:01.093Z,0.7138888888888888
2022-10-20T09:22:02.114Z,0.7527777777777778
2022-10-20T09:23:04.197Z,1.6277777777777778
2022-10-20T09:24:01.320Z,0.3972222222222222
2022-10-20T09:25:01.160Z,0.9944444444444445
2022-10-20T09:26:01.219Z,0.4361111111111111
2022-10-20T09:27:01.139Z,1.3111111111111111
2022-10-20T09:28:01.140Z,0.7944444444444444
2022-10-20T09:29:12.452Z,0.675
2022-10-20T09:30:01.279Z,0.5638888888888888
2022-10-20T09:31:02.971Z,2.461111111111111
2022-10-20T09:32:16.643Z,1.152777777777778
2022-10-20T09:33:01.603Z,0.9527777777777778
2022-10-20T09:34:01.233Z,1.0722222222222222
2022-10-20T09:35:05.258Z,1.2527777777777778
2022-10-20T09:36:02.204Z,1.4305555555555556
2022-10-20T09:37:01.432Z,0.9527777777777778
2022-10-20T09:38:02.636Z,1.1194444444444445
2022-10-20T09:39:01.143Z,1.4694444444444443
2022-10-20T09:40:07.928Z,0.09722222222222221
2022-10-20T09:41:02.621Z,1.0722222222222222
2022-10-20T09:43:02.041Z,0.7944444444444444
2022-10-20T09:44:02.766Z,1.0333333333333334
2022-10-20T09:45:11.091Z,0.44166666666666665
2022-10-20T09:46:01.586Z,1.1555555555555557
2022-10-20T09:47:01.324Z,0.8333333333333333
2022-10-20T09:48:02.213Z,0.8944444444444445
2022-10-20T09:49:02.223Z,0.5166666666666667
2022-10-20T09:50:14.035Z,0.35555555555555557
2022-10-20T09:51:01.942Z,0.47777777777777775
2022-10-20T09:52:01.083Z,0.5166666666666667
2022-10-20T09:53:00.926Z,0.19999999999999998
2022-10-20T09:54:01.069Z,0.4361111111111111
2022-10-20T09:55:15.920Z,0.9472222222222222
2022-10-20T09:56:01.116Z,1.7083333333333335
2022-10-20T09:57:01.151Z,0.6361111111111111
2022-10-20T09:58:01.124Z,1.1916666666666667
2022-10-20T09:59:01.191Z,1.2305555555555554
2022-10-20T10:00:04.505Z,1.0333333333333334
2022-10-20T10:01:01.153Z,0.3972222222222222
2022-10-20T10:02:01.489Z,1.4305555555555556
2022-10-20T10:03:01.185Z,0.7944444444444444
2022-10-20T10:04:01.149Z,0.7944444444444444
2022-10-20T10:05:01.158Z,0.2777777777777778
2022-10-20T10:06:01.143Z,1.3916666666666666
2022-10-20T10:07:01.185Z,0.875
2022-10-20T10:08:01.270Z,0.9138888888888889
2022-10-20T10:09:01.174Z,0.47777777777777775
2022-10-20T10:10:03.950Z,0.7138888888888888
2022-10-20T10:11:01.085Z,0.5972222222222222
2022-10-20T10:12:01.449Z,0.4361111111111111
2022-10-20T10:13:01.581Z,0.27499999999999997
2022-10-20T10:14:01.539Z,0.7555555555555555
2022-10-20T10:15:01.250Z,0.4361111111111111
2022-10-20T10:16:01.954Z,0.5555555555555556
2022-10-20T10:17:01.189Z,0.2777777777777778
2022-10-20T10:18:01.152Z,1.1111111111111112
2022-10-20T10:19:02.009Z,0.2777777777777778
2022-10-20T10:20:01.060Z,0.6361111111111111
2022-10-20T10:21:01.460Z,1.0333333333333334
2022-10-20T10:22:01.350Z,0.5972222222222222
2022-10-20T10:23:02.044Z,0.5555555555555556
2022-10-20T10:24:02.113Z,0.19999999999999998
2022-10-20T10:25:01.242Z,0.5166666666666667
2022-10-20T10:26:02.279Z,0.9944444444444445
2022-10-20T10:27:01.158Z,0.5555555555555556
2022-10-20T10:28:01.412Z,0.31666666666666665
2022-10-20T10:29:01.264Z,0.6361111111111111
2022-10-20T10:30:01.136Z,0
2022-10-20T10:31:02.045Z,0.31666666666666665
2022-10-20T10:32:01.145Z,1.0722222222222222
2022-10-20T10:33:01.144Z,0.4361111111111111
2022-10-20T10:34:00.753Z,0.8333333333333333
2022-10-20T10:35:00.350Z,0.7555555555555555
2022-10-20T10:35:59.929Z,0.5166666666666667
2022-10-20T10:37:02.371Z,0.23888888888888887
2022-10-20T10:38:01.764Z,1.0999999999999999
2022-10-20T10:39:02.315Z,0.5555555555555556
2022-10-20T10:40:01.909Z,1.5888888888888888
2022-10-20T10:41:01.143Z,0.7138888888888888
2022-10-20T10:42:01.105Z,0.6361111111111111
2022-10-20T10:43:01.102Z,0.2777777777777778
2022-10-20T10:44:01.120Z,0.35833333333333334
2022-10-20T10:45:01.113Z,0.4361111111111111
2022-10-20T10:46:01.503Z,1.2555555555555553
2022-10-20T10:47:01.245Z,1.35
2022-10-20T10:48:01.075Z,1.788888888888889
2022-10-20T10:49:01.138Z,0.9138888888888889
2022-10-20T10:50:01.147Z,0.875
2022-10-20T10:51:01.051Z,0.7555555555555555
2022-10-20T10:52:01.452Z,0.8944444444444445
2022-10-20T10:53:01.094Z,0.3972222222222222
2022-10-20T10:54:00.763Z,0.47777777777777775
2022-10-20T10:55:00.350Z,0.35833333333333334
2022-10-20T10:56:00.205Z,0.11111111111111112
2022-10-20T10:56:59.830Z,0.15833333333333333
2022-10-20T10:58:01.566Z,0.675
2022-10-20T10:59:01.161Z,0.31666666666666665
2022-10-20T11:00:01.136Z,0.08055555555555555
2022-10-20T11:01:01.980Z,0.25833333333333336
2022-10-20T11:02:01.191Z,0.875
2022-10-20T11:03:01.153Z,0.35833333333333334
2022-10-20T11:04:01.133Z,0.7138888888888888
2022-10-20T11:05:01.149Z,0.23888888888888887
2022-10-20T11:06:01.153Z,0.6277777777777777
2022-10-20T11:07:01.160Z,0.31666666666666665
2022-10-20T11:08:01.061Z,1.4694444444444443